sim
Sign-in with your pilot id or email,
or register
Callsign
Passwort

Schedule Details

Flight Number: DLH2235
Departure: Paris Charles de Gaulle Airport (LFPG) at 16:55
Arrival: Munich Airport (EDDM) at 18:20
Route: Lufthansa Passenger Schedule. Enter filed route here before submitting Pirep.

Weather Information
Getting current METAR information for LFPG 221400Z VRB05KT CAVOK 25/05 Q1010 NOSIG
Getting current METAR information for EDDM 221420Z VRB03KT 9999 FEW040 24/14 Q1011 NOSIG

Schedule Frequency

Route Map